Overview Statistics Trail Chart Weather Telemetry Raw packets
 

This is the latest recevied weather packets stored in our database for station/object EB1BWO-11. If no packets are shown the sender has not sent any weather packets the latest 10 day(s).

<< 1 2 3 4 >>
Time Temp. Humidity Pressure Rain* Wind** Luminosity Snow
1788664655 22.22° C 62% 1021.2 hPa - - - -
1788663755 22.22° C 63% 1021.6 hPa - - - -
1788662886 21.11° C 66% 1021.5 hPa - - - -
1788661952 20.56° C 69% 1021.8 hPa - - - -
1788661052 21.11° C 67% 1022 hPa - - - -
1788660152 21.11° C 69% 1022.2 hPa - - - -
1788659251 20.56° C 69% 1022.5 hPa - - - -
1788658351 20.56° C 69% 1022.8 hPa - - - -
1788657450 20.56° C 69% 1023 hPa - - - -
1788656564 21.11° C 69% 1023.3 hPa - - - -
1788655649 21.11° C 69% 1023.6 hPa - - - -
1788654749 21.11° C 69% 1023.8 hPa - - - -
1788653849 21.11° C 68% 1023.9 hPa - - - -
1788652948 21.67° C 68% 1024.1 hPa - - - -
1788652048 21.67° C 67% 1024.1 hPa - - - -
1788651147 21.67° C 67% 1024.4 hPa - - - -
1788650246 21.67° C 68% 1024.6 hPa - - - -
1788649346 21.67° C 68% 1024.8 hPa - - - -
1788648445 21.67° C 69% 1024.8 hPa - - - -
1788647544 21.67° C 68% 1024.7 hPa - - - -
1788646644 21.67° C 69% 1024.7 hPa - - - -
1788645743 21.67° C 68% 1024.9 hPa - - - -
1788644843 21.67° C 69% 1024.6 hPa - - - -
1788643942 21.67° C 68% 1023.9 hPa - - - -
1788643041 22.22° C 67% 1022.7 hPa - - - -

* Rain since midnight (hover to see other rain measurements)
** Current wind speed in m/s (hover to see current wind gust speed)